Time;durP1;ratioP1;P1;durP2;ratioP2;P2;SDS_P1;SDS_P2;PMS_P1;PMS_P2;Temp;Humidity;BMP_temperature;BMP_pressure;BME280_temperature;BME280_humidity;BME280_pressure;Samples;Min_cycle;Max_cycle;Signal;HPM_P1;HPM_P2
2023/08/08 00:00:51;0.00;0.00;0.62;0.00;0.00;0.62;2.00;1.37;;;27.60;27.20;;;;;;2585911;45;20990;-55
2023/08/08 00:03:38;0.00;0.00;0.62;0.00;0.00;0.62;2.40;1.97;;;27.60;27.20;;;;;;2264006;61;20392;-58
2023/08/08 00:06:23;0.00;0.00;0.62;0.00;0.00;0.62;2.30;1.50;;;27.60;27.20;;;;;;2264329;61;20406;-57
2023/08/08 00:09:08;0.00;0.00;0.62;0.00;0.00;0.62;2.63;1.53;;;27.60;27.20;;;;;;2261508;61;20433;-59
2023/08/08 00:11:53;0.00;0.00;0.62;0.00;0.00;0.62;2.27;1.53;;;27.60;27.20;;;;;;2265164;61;20367;-59
2023/08/08 00:14:38;0.00;0.00;0.62;0.00;0.00;0.62;2.67;1.60;;;27.50;27.20;;;;;;2268143;61;20402;-59
2023/08/08 00:17:22;0.00;0.00;0.62;0.00;0.00;0.62;3.03;1.80;;;27.60;27.20;;;;;;2264809;61;20760;-55
2023/08/08 00:20:10;0.00;0.00;0.62;0.00;0.00;0.62;2.00;1.23;;;27.60;27.20;;;;;;2263991;61;20986;-58
2023/08/08 00:22:55;0.00;0.00;0.62;0.00;0.00;0.62;3.20;1.60;;;27.50;27.20;;;;;;2267532;61;20432;-57
2023/08/08 00:25:40;0.00;0.00;0.62;0.00;0.00;0.62;2.70;1.83;;;27.50;27.20;;;;;;2268005;61;20423;-56
2023/08/08 00:28:25;0.00;0.00;0.62;0.00;0.00;0.62;1.97;1.47;;;27.50;27.20;;;;;;2267638;61;20370;-57
2023/08/08 00:31:10;0.00;0.00;0.62;0.00;0.00;0.62;3.03;1.60;;;27.50;27.20;;;;;;2267430;61;20401;-54
2023/08/08 00:33:56;0.00;0.00;0.62;0.00;0.00;0.62;2.27;1.57;;;27.50;27.10;;;;;;2265167;61;20405;-57
2023/08/08 00:36:42;0.00;0.00;0.62;0.00;0.00;0.62;2.33;1.50;;;27.50;27.20;;;;;;2265032;61;20363;-60
2023/08/08 00:39:27;0.00;0.00;0.62;0.00;0.00;0.62;4.40;1.53;;;27.50;27.20;;;;;;2267304;61;20410;-58
2023/08/08 00:42:11;0.00;0.00;0.62;0.00;0.00;0.62;3.40;1.93;;;27.50;27.20;;;;;;2267946;61;20910;-57
2023/08/08 00:45:03;0.00;0.00;0.62;0.00;0.00;0.62;3.97;1.73;;;27.40;27.10;;;;;;2264394;61;20688;-61
2023/08/08 00:47:48;0.00;0.00;0.62;0.00;0.00;0.62;2.83;1.40;;;27.50;27.20;;;;;;2267937;61;20390;-57
2023/08/08 00:50:33;0.00;0.00;0.62;0.00;0.00;0.62;2.00;1.30;;;27.40;27.20;;;;;;2264277;61;20922;-58
2023/08/08 00:53:20;0.00;0.00;0.62;0.00;0.00;0.62;2.27;1.33;;;27.40;27.10;;;;;;2267395;61;20363;-57
2023/08/08 00:56:05;0.00;0.00;0.62;0.00;0.00;0.62;2.57;1.17;;;27.40;27.10;;;;;;2264888;61;20360;-57
2023/08/08 00:58:53;0.00;0.00;0.62;0.00;0.00;0.62;2.33;1.20;;;27.40;27.10;;;;;;2267206;61;20966;-54
2023/08/08 01:01:37;0.00;0.00;0.62;0.00;0.00;0.62;2.40;1.40;;;27.40;27.10;;;;;;2264787;61;20359;-50
2023/08/08 01:04:26;0.00;0.00;0.62;0.00;0.00;0.62;2.17;1.63;;;27.40;27.20;;;;;;2268249;61;20923;-55
2023/08/08 01:07:22;0.00;0.00;0.62;0.00;0.00;0.62;1.70;1.40;;;27.40;27.10;;;;;;2264698;61;20371;-59
2023/08/08 01:10:12;0.00;0.00;0.62;0.00;0.00;0.62;2.17;1.43;;;27.40;27.20;;;;;;2267674;61;20390;-58
2023/08/08 01:13:04;0.00;0.00;0.62;0.00;0.00;0.62;2.03;1.30;;;27.40;27.20;;;;;;2265256;61;20783;-55
2023/08/08 01:15:50;0.00;0.00;0.62;0.00;0.00;0.62;2.03;1.33;;;27.40;27.20;;;;;;2268621;61;20771;-58
2023/08/08 01:18:37;0.00;0.00;0.62;0.00;0.00;0.62;1.50;1.10;;;27.40;27.20;;;;;;2265008;61;20383;-58
2023/08/08 01:21:21;0.00;0.00;0.62;0.00;0.00;0.62;2.13;1.57;;;27.40;27.10;;;;;;2268308;61;20879;-63
2023/08/08 01:24:18;0.00;0.00;0.62;0.00;0.00;0.62;1.63;1.13;;;27.40;27.20;;;;;;2265241;61;20417;-60
2023/08/08 01:27:04;0.00;0.00;0.62;0.00;0.00;0.62;1.97;1.47;;;27.40;27.20;;;;;;2268702;61;20382;-57
2023/08/08 01:29:49;0.00;0.00;0.62;0.00;0.00;0.62;2.10;1.40;;;27.40;27.20;;;;;;2264265;61;20390;-59
2023/08/08 01:32:34;0.00;0.00;0.62;0.00;0.00;0.62;1.60;1.20;;;27.40;27.20;;;;;;2268478;61;20772;-60
2023/08/08 01:35:19;0.00;0.00;0.62;0.00;0.00;0.62;2.60;1.27;;;27.30;27.10;;;;;;2265859;61;20362;-60
2023/08/08 01:38:14;0.00;0.00;0.62;0.00;0.00;0.62;2.47;1.47;;;27.40;27.20;;;;;;2268551;61;20696;-53
2023/08/08 01:41:01;0.00;0.00;0.62;0.00;0.00;0.62;2.67;1.30;;;27.30;27.10;;;;;;2564265;45;20360;-58
2023/08/08 01:43:47;0.00;0.00;0.62;0.00;0.00;0.62;2.17;1.20;;;27.30;27.10;;;;;;2261527;61;20431;-57
2023/08/08 01:46:33;0.00;0.00;0.62;0.00;0.00;0.62;1.93;1.20;;;27.30;27.70;;;;;;2263647;61;20418;-60
2023/08/08 01:49:18;0.00;0.00;0.62;0.00;0.00;0.62;2.30;1.40;;;27.30;27.10;;;;;;2265715;61;20383;-63
2023/08/08 01:52:03;0.00;0.00;0.62;0.00;0.00;0.62;2.10;1.40;;;27.30;27.10;;;;;;2267836;61;20465;-57
2023/08/08 01:54:48;0.00;0.00;0.62;0.00;0.00;0.62;1.90;1.30;;;27.30;27.10;;;;;;2268529;61;20446;-58
2023/08/08 01:57:34;0.00;0.00;0.62;0.00;0.00;0.62;1.97;1.20;;;27.30;27.20;;;;;;2268694;61;20404;-55
2023/08/08 02:00:19;0.00;0.00;0.62;0.00;0.00;0.62;1.80;1.10;;;27.30;27.10;;;;;;2263466;61;20571;-58
2023/08/08 02:03:04;0.00;0.00;0.62;0.00;0.00;0.62;1.83;1.30;;;27.30;27.20;;;;;;2264637;61;20867;-59
2023/08/08 02:05:49;0.00;0.00;0.62;0.00;0.00;0.62;2.23;1.37;;;27.30;27.20;;;;;;2264669;61;20474;-58
2023/08/08 02:08:34;0.00;0.00;0.62;0.00;0.00;0.62;2.23;1.33;;;27.30;27.20;;;;;;2260592;61;20387;-57
2023/08/08 02:11:21;0.00;0.00;0.62;0.00;0.00;0.62;2.07;1.60;;;27.30;27.20;;;;;;2260995;61;20364;-57
2023/08/08 02:14:09;0.00;0.00;0.62;0.00;0.00;0.62;2.43;1.40;;;27.30;27.20;;;;;;2260850;61;20942;-55
2023/08/08 02:16:54;0.00;0.00;0.62;0.00;0.00;0.62;2.07;1.20;;;27.30;27.20;;;;;;2264378;61;20398;-58
2023/08/08 02:19:38;0.00;0.00;0.62;0.00;0.00;0.62;2.13;1.60;;;27.30;27.20;;;;;;2257763;61;20392;-61
2023/08/08 02:22:23;0.00;0.00;0.62;0.00;0.00;0.62;1.93;1.30;;;27.20;27.10;;;;;;2263768;61;20438;-61
2023/08/08 02:25:08;0.00;0.00;0.62;0.00;0.00;0.62;1.67;1.10;;;27.20;27.10;;;;;;2261206;61;20795;-58
2023/08/08 02:27:53;0.00;0.00;0.62;0.00;0.00;0.62;1.80;1.17;;;27.20;27.10;;;;;;2261308;61;20406;-57
2023/08/08 02:30:39;0.00;0.00;0.62;0.00;0.00;0.62;1.80;1.10;;;27.20;27.20;;;;;;2260476;61;20403;-55
2023/08/08 02:33:24;0.00;0.00;0.62;0.00;0.00;0.62;2.03;1.40;;;27.20;27.20;;;;;;2263547;61;20383;-56
2023/08/08 02:36:08;0.00;0.00;0.62;0.00;0.00;0.62;1.77;1.10;;;27.20;27.10;;;;;;2267796;61;20417;-55
2023/08/08 02:38:54;0.00;0.00;0.62;0.00;0.00;0.62;1.60;1.10;;;27.20;27.10;;;;;;2268397;61;20390;-58
2023/08/08 02:41:39;0.00;0.00;0.62;0.00;0.00;0.62;2.23;1.30;;;27.20;27.20;;;;;;2268499;61;20410;-58
2023/08/08 02:44:24;0.00;0.00;0.62;0.00;0.00;0.62;2.33;1.50;;;27.20;27.10;;;;;;2264511;61;20443;-59
2023/08/08 02:47:11;0.00;0.00;0.62;0.00;0.00;0.62;1.83;1.30;;;27.20;27.20;;;;;;2265411;61;20385;-61
2023/08/08 02:49:56;0.00;0.00;0.62;0.00;0.00;0.62;1.73;1.13;;;27.20;27.20;;;;;;2267893;61;20386;-55
2023/08/08 02:52:40;0.00;0.00;0.62;0.00;0.00;0.62;1.83;1.20;;;27.20;27.20;;;;;;2268124;61;20366;-59
2023/08/08 02:55:25;0.00;0.00;0.62;0.00;0.00;0.62;1.73;1.30;;;27.20;27.20;;;;;;2265222;61;20509;-58
2023/08/08 02:58:10;0.00;0.00;0.62;0.00;0.00;0.62;1.90;1.07;;;27.20;27.20;;;;;;2264534;61;20360;-61
2023/08/08 03:00:55;0.00;0.00;0.62;0.00;0.00;0.62;1.67;1.20;;;27.20;27.20;;;;;;2265163;61;20779;-59
2023/08/08 03:03:42;0.00;0.00;0.62;0.00;0.00;0.62;1.57;1.17;;;27.20;27.20;;;;;;2264990;61;20444;-57
2023/08/08 03:06:27;0.00;0.00;0.62;0.00;0.00;0.62;2.00;1.20;;;27.20;27.20;;;;;;2263471;61;20367;-56
2023/08/08 03:09:11;0.00;0.00;0.62;0.00;0.00;0.62;1.80;1.20;;;27.20;27.20;;;;;;2264738;61;20947;-57
2023/08/08 03:11:57;0.00;0.00;0.62;0.00;0.00;0.62;1.60;0.90;;;27.20;27.20;;;;;;2265114;61;20366;-57
2023/08/08 03:14:42;0.00;0.00;0.62;0.00;0.00;0.62;2.07;1.40;;;27.20;27.20;;;;;;2267980;61;20413;-59
2023/08/08 03:17:27;0.00;0.00;0.62;0.00;0.00;0.62;1.80;1.17;;;27.20;27.20;;;;;;2268115;61;20363;-62
2023/08/08 03:20:13;0.00;0.00;0.62;0.00;0.00;0.62;1.93;1.50;;;27.20;27.20;;;;;;2264448;61;20839;-59
2023/08/08 03:22:58;0.00;0.00;0.62;0.00;0.00;0.62;2.13;1.17;;;27.10;27.10;;;;;;2264876;61;20367;-58
2023/08/08 03:25:42;0.00;0.00;0.62;0.00;0.00;0.62;1.90;1.10;;;27.20;27.20;;;;;;2264703;61;20413;-61
2023/08/08 03:28:27;0.00;0.00;0.62;0.00;0.00;0.62;2.40;1.40;;;27.20;27.20;;;;;;2267383;61;20355;-61
2023/08/08 03:31:14;0.00;0.00;0.62;0.00;0.00;0.62;2.60;1.40;;;27.10;27.20;;;;;;2265099;61;20363;-61
2023/08/08 03:34:00;0.00;0.00;0.62;0.00;0.00;0.62;1.87;1.07;;;27.10;27.20;;;;;;2265049;61;20354;-59
2023/08/08 03:36:47;0.00;0.00;0.62;0.00;0.00;0.62;2.30;1.30;;;27.20;27.20;;;;;;2264817;61;20957;-59
2023/08/08 03:39:32;0.00;0.00;0.62;0.00;0.00;0.62;2.40;1.43;;;27.10;27.20;;;;;;2264485;61;20861;-60
2023/08/08 03:42:18;0.00;0.00;0.62;0.00;0.00;0.62;2.50;1.47;;;27.10;27.20;;;;;;2264683;61;20819;-57
2023/08/08 03:45:03;0.00;0.00;0.62;0.00;0.00;0.62;2.20;1.30;;;27.10;27.20;;;;;;2268223;61;20833;-58
2023/08/08 03:47:48;0.00;0.00;0.62;0.00;0.00;0.62;2.57;1.80;;;27.10;27.20;;;;;;2265062;61;20405;-60
2023/08/08 03:50:32;0.00;0.00;0.62;0.00;0.00;0.62;2.70;1.30;;;27.10;27.20;;;;;;2267153;61;20436;-58
2023/08/08 03:53:18;0.00;0.00;0.62;0.00;0.00;0.62;2.33;1.43;;;27.10;27.20;;;;;;2268165;61;20809;-59
2023/08/08 03:56:04;0.00;0.00;0.62;0.00;0.00;0.62;2.17;1.50;;;27.10;27.20;;;;;;2268108;61;20395;-57
2023/08/08 03:58:49;0.00;0.00;0.62;0.00;0.00;0.62;1.93;1.47;;;27.10;27.20;;;;;;2264115;61;20475;-54
2023/08/08 04:01:34;0.00;0.00;0.62;0.00;0.00;0.62;2.37;1.63;;;27.10;27.20;;;;;;2264841;61;20359;-58
2023/08/08 04:04:19;0.00;0.00;0.62;0.00;0.00;0.62;1.93;1.33;;;27.10;27.20;;;;;;2268103;61;20796;-58
2023/08/08 04:07:04;0.00;0.00;0.62;0.00;0.00;0.62;1.93;1.30;;;27.10;27.20;;;;;;2264674;61;20382;-60
2023/08/08 04:09:51;0.00;0.00;0.62;0.00;0.00;0.62;2.70;1.80;;;27.10;27.20;;;;;;2267726;61;20838;-53
2023/08/08 04:12:35;0.00;0.00;0.62;0.00;0.00;0.62;2.00;1.37;;;27.10;27.30;;;;;;2267533;61;20451;-56
2023/08/08 04:15:20;0.00;0.00;0.62;0.00;0.00;0.62;2.00;1.33;;;27.10;27.30;;;;;;2265198;61;20665;-58
2023/08/08 04:18:06;0.00;0.00;0.62;0.00;0.00;0.62;2.17;1.67;;;27.10;27.30;;;;;;2262017;61;20385;-61
2023/08/08 04:20:51;0.00;0.00;0.62;0.00;0.00;0.62;2.47;1.43;;;27.00;27.20;;;;;;2267603;61;20391;-62
2023/08/08 04:23:35;0.00;0.00;0.62;0.00;0.00;0.62;2.53;1.67;;;27.10;27.30;;;;;;2267877;61;20358;-56
2023/08/08 04:26:21;0.00;0.00;0.62;0.00;0.00;0.62;3.03;1.40;;;27.10;27.30;;;;;;2267414;61;20919;-54
2023/08/08 04:29:06;0.00;0.00;0.62;0.00;0.00;0.62;2.40;1.47;;;27.10;27.30;;;;;;2267120;61;20431;-60
2023/08/08 04:31:52;0.00;0.00;0.62;0.00;0.00;0.62;2.00;1.50;;;27.10;27.30;;;;;;2267740;61;20409;-59
2023/08/08 04:34:37;0.00;0.00;0.62;0.00;0.00;0.62;1.80;1.23;;;27.00;27.20;;;;;;2266991;61;20362;-61
2023/08/08 04:37:21;0.00;0.00;0.62;0.00;0.00;0.62;2.17;1.40;;;27.00;27.20;;;;;;2267605;61;20363;-56
2023/08/08 04:40:08;0.00;0.00;0.62;0.00;0.00;0.62;2.77;1.73;;;27.00;27.20;;;;;;2267415;61;20378;-61
2023/08/08 04:42:54;0.00;0.00;0.62;0.00;0.00;0.62;2.33;1.57;;;27.00;27.30;;;;;;2267051;61;20383;-57
2023/08/08 04:45:39;0.00;0.00;0.62;0.00;0.00;0.62;2.90;1.63;;;27.00;27.30;;;;;;2267895;61;20956;-58
2023/08/08 04:48:24;0.00;0.00;0.62;0.00;0.00;0.62;1.97;1.30;;;27.00;27.20;;;;;;2267749;61;20927;-60
2023/08/08 04:51:09;0.00;0.00;0.62;0.00;0.00;0.62;3.30;1.60;;;27.00;27.20;;;;;;2267372;61;20383;-58
2023/08/08 04:53:54;0.00;0.00;0.62;0.00;0.00;0.62;2.20;1.43;;;27.00;27.20;;;;;;2264827;61;20409;-59
2023/08/08 04:56:39;0.00;0.00;0.62;0.00;0.00;0.62;2.20;1.77;;;27.00;27.30;;;;;;2267330;61;20937;-61
2023/08/08 04:59:25;0.00;0.00;0.62;0.00;0.00;0.62;2.27;1.50;;;27.00;27.20;;;;;;2267643;61;20415;-60
2023/08/08 05:02:10;0.00;0.00;0.62;0.00;0.00;0.62;2.27;1.43;;;27.00;27.20;;;;;;2268128;61;20389;-60
2023/08/08 05:04:54;0.00;0.00;0.62;0.00;0.00;0.62;3.20;1.97;;;27.00;27.20;;;;;;2267419;61;20437;-65
2023/08/08 05:07:39;0.00;0.00;0.62;0.00;0.00;0.62;2.10;1.50;;;27.00;27.30;;;;;;2268063;61;20416;-60
2023/08/08 05:10:23;0.00;0.00;0.62;0.00;0.00;0.62;3.00;1.93;;;27.00;27.30;;;;;;2264540;61;20383;-62
2023/08/08 05:13:10;0.00;0.00;0.62;0.00;0.00;0.62;2.97;1.77;;;27.00;27.80;;;;;;2267719;61;20433;-62
2023/08/08 05:15:56;0.00;0.00;0.62;0.00;0.00;0.62;2.20;1.63;;;27.00;27.30;;;;;;2268102;61;20389;-62
2023/08/08 05:18:44;0.00;0.00;0.62;0.00;0.00;0.62;2.60;1.80;;;27.00;27.30;;;;;;2267237;61;20387;-61
2023/08/08 05:21:28;0.00;0.00;0.62;0.00;0.00;0.62;5.07;2.30;;;27.00;27.80;;;;;;2264790;61;20433;-62
2023/08/08 05:24:13;0.00;0.00;0.62;0.00;0.00;0.62;2.07;1.40;;;27.00;27.30;;;;;;2268135;61;20387;-62
2023/08/08 05:26:57;0.00;0.00;0.62;0.00;0.00;0.62;3.47;2.07;;;27.00;27.30;;;;;;2267202;61;20421;-59
2023/08/08 05:29:42;0.00;0.00;0.62;0.00;0.00;0.62;3.60;1.87;;;27.00;27.90;;;;;;2267613;61;20421;-62
2023/08/08 05:32:28;0.00;0.00;0.62;0.00;0.00;0.62;2.80;1.70;;;27.00;27.30;;;;;;2268100;61;20408;-62
2023/08/08 05:35:12;0.00;0.00;0.62;0.00;0.00;0.62;2.80;2.17;;;27.00;27.30;;;;;;2267343;61;20363;-62
2023/08/08 05:37:57;0.00;0.00;0.62;0.00;0.00;0.62;2.90;2.27;;;27.00;27.30;;;;;;2268240;61;20370;-61
2023/08/08 05:40:42;0.00;0.00;0.62;0.00;0.00;0.62;2.90;1.80;;;27.00;27.30;;;;;;2267566;61;20367;-62
2023/08/08 05:43:27;0.00;0.00;0.62;0.00;0.00;0.62;2.40;1.70;;;27.00;27.30;;;;;;2268176;61;20355;-63
2023/08/08 05:46:12;0.00;0.00;0.62;0.00;0.00;0.62;2.43;1.80;;;27.00;27.40;;;;;;2268158;61;20410;-61
2023/08/08 05:48:58;0.00;0.00;0.62;0.00;0.00;0.62;2.97;2.17;;;27.00;27.30;;;;;;2264543;61;20383;-61
2023/08/08 05:51:43;0.00;0.00;0.62;0.00;0.00;0.62;3.07;2.00;;;27.00;27.40;;;;;;2268662;61;20389;-59
2023/08/08 05:54:28;0.00;0.00;0.62;0.00;0.00;0.62;2.67;2.13;;;27.00;27.40;;;;;;2268678;61;20358;-62
2023/08/08 05:57:12;0.00;0.00;0.62;0.00;0.00;0.62;2.40;2.00;;;27.00;27.40;;;;;;2268001;61;20367;-61
2023/08/08 05:59:57;0.00;0.00;0.62;0.00;0.00;0.62;1.90;1.57;;;27.00;27.40;;;;;;2268180;61;20382;-62
2023/08/08 06:02:42;0.00;0.00;0.62;0.00;0.00;0.62;2.50;1.70;;;27.00;27.40;;;;;;2268169;61;20363;-62
2023/08/08 06:05:28;0.00;0.00;0.62;0.00;0.00;0.62;3.10;1.93;;;27.00;27.40;;;;;;2268586;61;20445;-59
2023/08/08 06:08:14;0.00;0.00;0.62;0.00;0.00;0.62;2.90;2.03;;;27.00;27.40;;;;;;2268472;61;20410;-58
2023/08/08 06:10:59;0.00;0.00;0.62;0.00;0.00;0.62;3.60;1.90;;;27.00;27.50;;;;;;2268049;61;20410;-54
2023/08/08 06:13:44;0.00;0.00;0.62;0.00;0.00;0.62;2.90;2.23;;;27.00;27.40;;;;;;2268660;61;20359;-55
2023/08/08 06:16:29;0.00;0.00;0.62;0.00;0.00;0.62;3.17;1.90;;;27.00;27.50;;;;;;2268468;61;20371;-60
2023/08/08 06:19:15;0.00;0.00;0.62;0.00;0.00;0.62;2.93;1.80;;;27.00;27.50;;;;;;2267564;61;20448;-56
2023/08/08 06:22:03;0.00;0.00;0.62;0.00;0.00;0.62;3.23;2.43;;;27.00;27.50;;;;;;2268811;61;20363;-64
2023/08/08 06:24:47;0.00;0.00;0.62;0.00;0.00;0.62;2.47;1.80;;;27.00;27.50;;;;;;2267792;61;20411;-58
2023/08/08 06:27:32;0.00;0.00;0.62;0.00;0.00;0.62;2.63;1.70;;;26.90;27.40;;;;;;2268205;61;20460;-56
2023/08/08 06:30:17;0.00;0.00;0.62;0.00;0.00;0.62;3.07;2.17;;;27.00;27.50;;;;;;2268067;61;20387;-58
2023/08/08 06:33:02;0.00;0.00;0.62;0.00;0.00;0.62;3.00;2.37;;;27.00;27.50;;;;;;2264797;61;20447;-60
2023/08/08 06:35:47;0.00;0.00;0.62;0.00;0.00;0.62;3.93;2.03;;;27.00;27.50;;;;;;2268579;61;20435;-57
2023/08/08 06:38:35;0.00;0.00;0.62;0.00;0.00;0.62;2.50;2.30;;;27.00;27.50;;;;;;2267953;61;20379;-56
2023/08/08 06:41:20;0.00;0.00;0.62;0.00;0.00;0.62;2.30;1.97;;;27.00;27.50;;;;;;2267884;61;20367;-60
2023/08/08 06:44:05;0.00;0.00;0.62;0.00;0.00;0.62;3.30;2.13;;;27.00;27.50;;;;;;2268310;61;20414;-57
2023/08/08 06:46:49;0.00;0.00;0.62;0.00;0.00;0.62;3.20;2.27;;;26.90;27.50;;;;;;2268419;61;20367;-59
2023/08/08 06:49:34;0.00;0.00;0.62;0.00;0.00;0.62;2.60;2.00;;;27.00;27.60;;;;;;2267769;61;20433;-58
2023/08/08 06:52:19;0.00;0.00;0.62;0.00;0.00;0.62;2.20;1.80;;;27.00;27.60;;;;;;2268319;61;20798;-57
2023/08/08 06:55:07;0.00;0.00;0.62;0.00;0.00;0.62;2.70;1.70;;;27.00;27.60;;;;;;2267955;61;20372;-59
2023/08/08 06:57:51;0.00;0.00;0.62;0.00;0.00;0.62;4.17;1.80;;;27.00;27.60;;;;;;2268303;61;20470;-61
2023/08/08 07:00:36;0.00;0.00;0.62;0.00;0.00;0.62;2.60;2.23;;;26.90;27.60;;;;;;2267782;61;20991;-59
2023/08/08 07:03:21;0.00;0.00;0.62;0.00;0.00;0.62;2.30;1.57;;;27.00;27.60;;;;;;2267785;61;20363;-60
2023/08/08 07:06:06;0.00;0.00;0.62;0.00;0.00;0.62;2.50;2.00;;;26.90;27.60;;;;;;2268277;61;20471;-59
2023/08/08 07:08:50;0.00;0.00;0.62;0.00;0.00;0.62;2.60;2.17;;;27.00;27.60;;;;;;2268048;61;20732;-59
2023/08/08 07:11:36;0.00;0.00;0.62;0.00;0.00;0.62;2.60;1.90;;;27.00;27.60;;;;;;2267932;61;20410;-59
2023/08/08 07:14:21;0.00;0.00;0.62;0.00;0.00;0.62;2.23;1.50;;;27.00;27.60;;;;;;2268151;61;20891;-59
2023/08/08 07:17:06;0.00;0.00;0.62;0.00;0.00;0.62;5.03;2.13;;;27.00;27.70;;;;;;2268108;61;20355;-58
2023/08/08 07:19:51;0.00;0.00;0.62;0.00;0.00;0.62;2.93;1.70;;;27.00;27.70;;;;;;2267990;61;20458;-61
2023/08/08 07:22:38;0.00;0.00;0.62;0.00;0.00;0.62;3.10;2.20;;;26.90;27.60;;;;;;2268377;61;20413;-64
2023/08/08 07:25:23;0.00;0.00;0.62;0.00;0.00;0.62;2.43;1.67;;;27.00;27.70;;;;;;2267615;61;20397;-59
2023/08/08 07:28:09;0.00;0.00;0.62;0.00;0.00;0.62;3.03;1.70;;;26.90;27.60;;;;;;2268346;61;20919;-59
2023/08/08 07:30:54;0.00;0.00;0.62;0.00;0.00;0.62;2.90;2.00;;;26.90;27.60;;;;;;2268255;61;20899;-58
2023/08/08 07:33:38;0.00;0.00;0.62;0.00;0.00;0.62;2.63;1.97;;;27.00;27.70;;;;;;2267927;61;20403;-58
2023/08/08 07:36:23;0.00;0.00;0.62;0.00;0.00;0.62;2.63;1.93;;;27.00;27.70;;;;;;2268269;61;20358;-59
2023/08/08 07:39:08;0.00;0.00;0.62;0.00;0.00;0.62;2.00;1.60;;;27.00;27.70;;;;;;2267610;61;20486;-58
2023/08/08 07:41:53;0.00;0.00;0.62;0.00;0.00;0.62;3.00;2.00;;;27.00;27.70;;;;;;2268160;61;20358;-59
2023/08/08 07:44:39;0.00;0.00;0.62;0.00;0.00;0.62;2.70;1.77;;;27.00;27.70;;;;;;2268206;61;20441;-55
2023/08/08 07:47:24;0.00;0.00;0.62;0.00;0.00;0.62;2.20;1.60;;;27.00;27.80;;;;;;2264588;61;20407;-61
2023/08/08 07:50:09;0.00;0.00;0.62;0.00;0.00;0.62;2.00;1.40;;;27.00;27.80;;;;;;2267763;61;20465;-59
2023/08/08 07:52:54;0.00;0.00;0.62;0.00;0.00;0.62;2.50;1.73;;;26.90;27.70;;;;;;2265108;61;20395;-61
2023/08/08 07:55:38;0.00;0.00;0.62;0.00;0.00;0.62;2.10;1.40;;;26.90;27.70;;;;;;2267711;61;20355;-61
2023/08/08 07:58:25;0.00;0.00;0.62;0.00;0.00;0.62;1.90;1.53;;;26.90;27.70;;;;;;2267763;61;20847;-57
2023/08/08 08:01:13;0.00;0.00;0.62;0.00;0.00;0.62;2.07;1.67;;;27.00;27.80;;;;;;2267685;61;20424;-58
2023/08/08 08:03:58;0.00;0.00;0.62;0.00;0.00;0.62;2.73;1.77;;;26.90;27.70;;;;;;2267796;61;20777;-59
2023/08/08 08:06:43;0.00;0.00;0.62;0.00;0.00;0.62;2.73;1.50;;;26.90;27.70;;;;;;2267856;61;20355;-59
2023/08/08 08:09:27;0.00;0.00;0.62;0.00;0.00;0.62;2.60;1.67;;;27.00;27.80;;;;;;2266653;61;20382;-60
2023/08/08 08:12:12;0.00;0.00;0.62;0.00;0.00;0.62;2.60;1.70;;;26.90;27.80;;;;;;2267718;61;20418;-60
2023/08/08 08:14:59;0.00;0.00;0.62;0.00;0.00;0.62;2.30;1.67;;;26.90;27.80;;;;;;2268197;61;20363;-57
2023/08/08 08:17:45;0.00;0.00;0.62;0.00;0.00;0.62;2.63;1.53;;;26.90;27.80;;;;;;2267635;61;20379;-66
2023/08/08 08:20:30;0.00;0.00;0.62;0.00;0.00;0.62;2.13;1.57;;;26.90;27.80;;;;;;2267863;61;20379;-58
2023/08/08 08:23:15;0.00;0.00;0.62;0.00;0.00;0.62;2.43;1.50;;;26.90;27.80;;;;;;2268060;61;20362;-59
2023/08/08 08:26:00;0.00;0.00;0.62;0.00;0.00;0.62;2.47;1.80;;;26.90;27.80;;;;;;2267621;61;20390;-57
2023/08/08 08:28:44;0.00;0.00;0.62;0.00;0.00;0.62;2.40;1.70;;;26.90;28.40;;;;;;2267668;61;20809;-57
2023/08/08 08:31:29;0.00;0.00;0.62;0.00;0.00;0.62;4.80;1.90;;;26.90;27.80;;;;;;2267250;61;20783;-61
2023/08/08 08:34:15;0.00;0.00;0.62;0.00;0.00;0.62;2.73;1.80;;;26.90;27.80;;;;;;2268110;61;20364;-59
2023/08/08 08:37:00;0.00;0.00;0.62;0.00;0.00;0.62;2.23;1.43;;;27.00;27.90;;;;;;2268014;61;20367;-54
2023/08/08 08:39:44;0.00;0.00;0.62;0.00;0.00;0.62;2.00;1.60;;;27.00;27.90;;;;;;2266955;61;20433;-58
2023/08/08 08:42:31;0.00;0.00;0.62;0.00;0.00;0.62;2.53;1.60;;;26.90;27.80;;;;;;2267925;61;20359;-58
2023/08/08 08:45:20;0.00;0.00;0.62;0.00;0.00;0.62;3.10;1.40;;;27.00;27.90;;;;;;2267787;61;20471;-58
2023/08/08 08:48:09;0.00;0.00;0.62;0.00;0.00;0.62;2.57;1.57;;;27.00;27.90;;;;;;2264421;61;20891;-58
2023/08/08 08:50:57;0.00;0.00;0.62;0.00;0.00;0.62;2.53;1.70;;;27.00;27.90;;;;;;2267802;61;20405;-58
2023/08/08 08:53:46;0.00;0.00;0.62;0.00;0.00;0.62;2.67;1.70;;;26.90;27.90;;;;;;2267539;61;20405;-60
2023/08/08 08:56:32;0.00;0.00;0.62;0.00;0.00;0.62;2.83;1.60;;;27.00;27.90;;;;;;2265083;61;20358;-60
2023/08/08 08:59:17;0.00;0.00;0.62;0.00;0.00;0.62;2.20;1.63;;;27.00;27.90;;;;;;2267463;61;20430;-56
2023/08/08 09:02:02;0.00;0.00;0.62;0.00;0.00;0.62;2.97;1.97;;;27.00;28.00;;;;;;2267627;61;20480;-57
2023/08/08 09:04:48;0.00;0.00;0.62;0.00;0.00;0.62;3.63;2.20;;;26.90;27.90;;;;;;2264695;61;20386;-56
2023/08/08 09:07:36;0.00;0.00;0.62;0.00;0.00;0.62;2.37;1.77;;;27.00;27.90;;;;;;2267709;61;20884;-57
2023/08/08 09:10:21;0.00;0.00;0.62;0.00;0.00;0.62;3.00;1.93;;;27.00;28.00;;;;;;2267283;61;20427;-59
2023/08/08 09:13:06;0.00;0.00;0.62;0.00;0.00;0.62;2.73;1.90;;;27.00;27.90;;;;;;2267806;61;20819;-60
2023/08/08 09:15:52;0.00;0.00;0.62;0.00;0.00;0.62;2.40;1.90;;;27.00;28.00;;;;;;2267356;61;20363;-56
2023/08/08 09:18:38;0.00;0.00;0.62;0.00;0.00;0.62;2.70;2.00;;;27.00;28.00;;;;;;2267717;61;20428;-59
2023/08/08 09:21:23;0.00;0.00;0.62;0.00;0.00;0.62;2.87;1.90;;;27.00;28.00;;;;;;2268211;61;20375;-60
2023/08/08 09:24:10;0.00;0.00;0.62;0.00;0.00;0.62;2.17;1.80;;;27.00;28.00;;;;;;2268201;61;20363;-56
2023/08/08 09:26:55;0.00;0.00;0.62;0.00;0.00;0.62;2.63;2.20;;;27.00;28.00;;;;;;2268560;61;20517;-58
2023/08/08 09:29:41;0.00;0.00;0.62;0.00;0.00;0.62;2.77;2.00;;;27.00;28.00;;;;;;2268322;61;20922;-59
2023/08/08 09:32:30;0.00;0.00;0.62;0.00;0.00;0.62;3.90;2.50;;;27.00;28.00;;;;;;2268142;61;20450;-59
2023/08/08 09:35:15;0.00;0.00;0.62;0.00;0.00;0.62;2.97;1.77;;;27.00;28.00;;;;;;2268648;61;20822;-58
2023/08/08 09:38:00;0.00;0.00;0.62;0.00;0.00;0.62;2.00;1.53;;;27.00;28.00;;;;;;2268184;61;20362;-58
2023/08/08 09:40:47;0.00;0.00;0.62;0.00;0.00;0.62;3.00;2.20;;;27.00;28.00;;;;;;2268709;61;20859;-58
2023/08/08 09:43:31;0.00;0.00;0.62;0.00;0.00;0.62;2.70;1.80;;;27.00;28.00;;;;;;2268630;61;20894;-57
2023/08/08 09:46:18;0.00;0.00;0.62;0.00;0.00;0.62;2.47;1.80;;;27.00;28.00;;;;;;2268035;61;20410;-57
2023/08/08 09:49:04;0.00;0.00;0.62;0.00;0.00;0.62;3.07;2.40;;;27.00;28.00;;;;;;2267701;61;20835;-58
2023/08/08 09:51:50;0.00;0.00;0.62;0.00;0.00;0.62;3.10;1.87;;;27.00;28.00;;;;;;2268664;61;20398;-58
2023/08/08 09:54:36;0.00;0.00;0.62;0.00;0.00;0.62;2.33;1.83;;;27.00;28.10;;;;;;2268347;61;20913;-60
2023/08/08 09:57:22;0.00;0.00;0.62;0.00;0.00;0.62;2.07;1.83;;;27.00;28.10;;;;;;2268547;61;20391;-57
2023/08/08 10:00:15;0.00;0.00;0.62;0.00;0.00;0.62;2.53;1.93;;;27.00;28.00;;;;;;2267505;61;20915;-59
2023/08/08 10:03:01;0.00;0.00;0.62;0.00;0.00;0.62;3.33;2.10;;;27.00;28.00;;;;;;2265412;61;20371;-61
2023/08/08 10:05:46;0.00;0.00;0.62;0.00;0.00;0.62;3.00;2.00;;;27.00;28.00;;;;;;2268437;61;20387;-59
2023/08/08 10:08:31;0.00;0.00;0.62;0.00;0.00;0.62;2.07;1.50;;;27.00;28.00;;;;;;2267623;61;20366;-58
2023/08/08 10:11:17;0.00;0.00;0.62;0.00;0.00;0.62;2.87;1.83;;;27.00;28.10;;;;;;2268454;61;20355;-61
2023/08/08 10:14:04;0.00;0.00;0.62;0.00;0.00;0.62;2.67;2.20;;;27.00;28.00;;;;;;2268487;61;20401;-59
2023/08/08 10:16:49;0.00;0.00;0.62;0.00;0.00;0.62;3.20;2.30;;;27.10;28.10;;;;;;2268080;61;20769;-57
2023/08/08 10:19:38;0.00;0.00;0.62;0.00;0.00;0.62;2.70;2.07;;;27.10;28.10;;;;;;2267949;61;20383;-59
2023/08/08 10:22:24;0.00;0.00;0.62;0.00;0.00;0.62;3.17;2.00;;;27.10;28.10;;;;;;2267891;61;20359;-57
2023/08/08 10:25:17;0.00;0.00;0.62;0.00;0.00;0.62;3.17;2.10;;;27.10;28.20;;;;;;2268390;61;20391;-58
2023/08/08 10:28:04;0.00;0.00;0.62;0.00;0.00;0.62;2.57;1.80;;;27.10;28.10;;;;;;2268552;61;20643;-62
2023/08/08 10:30:54;0.00;0.00;0.62;0.00;0.00;0.62;3.50;2.30;;;27.10;28.20;;;;;;2267713;61;20371;-62
2023/08/08 10:33:43;0.00;0.00;0.62;0.00;0.00;0.62;2.43;1.90;;;27.10;28.20;;;;;;2268282;61;20379;-60
2023/08/08 10:36:44;0.00;0.00;0.62;0.00;0.00;0.62;2.07;1.43;;;27.10;28.20;;;;;;2268150;61;20367;-60
2023/08/08 10:39:31;0.00;0.00;0.62;0.00;0.00;0.62;2.17;1.83;;;27.10;28.20;;;;;;2267929;61;20464;-62
2023/08/08 10:42:18;0.00;0.00;0.62;0.00;0.00;0.62;2.70;2.20;;;27.10;28.20;;;;;;2268578;61;20363;-62
2023/08/08 10:45:04;0.00;0.00;0.62;0.00;0.00;0.62;2.30;1.80;;;27.10;28.70;;;;;;2267681;61;20395;-61
2023/08/08 10:47:50;0.00;0.00;0.62;0.00;0.00;0.62;3.03;1.73;;;27.10;28.20;;;;;;2268528;61;20895;-61
2023/08/08 10:50:40;0.00;0.00;0.62;0.00;0.00;0.62;2.23;1.53;;;27.10;28.20;;;;;;2268177;61;20456;-62
2023/08/08 10:53:27;0.00;0.00;0.62;0.00;0.00;0.62;3.33;2.00;;;27.10;28.20;;;;;;2267911;61;20452;-60